Sandhurst, United Kingdom
Current Conditions -  °F | °C
As of 12:50 PM on Saturday 20 Dec 2014 (Local Time) from EGLF Reporting Station
Few Clouds Few Clouds  
Wind Chill: 42°   Ceiling: Unl
Heat Index: 48°   Visibility: 6mi
Dew Point: 37°   Wind: 17mph
Humidity: 66%   Direction: 270°W
Pressure: 30.3"   Gusts: NA
Location:  51.35°N, 0.78°W
Report Text: EGLF 201250Z 27015KT 230V290 9999 FEW032 09/03 Q1026
Loading
Personal Weather Stations






























Interactive Weather Map New forecast layout! Learn more

10-Day Weather Forecast

Advertisements
Track Severe Weather on mobile